sensor_id;sensor_type;location;lat;lon;timestamp;P1;durP1;ratioP1;P2;durP2;ratioP2
18443;SDS011;9350;53.176;8.194;2023-08-31T00:00:53;7.63;;;2.45;;
18443;SDS011;9350;53.176;8.194;2023-08-31T00:03:21;3.05;;;2.22;;
18443;SDS011;9350;53.176;8.194;2023-08-31T00:05:48;3.40;;;2.40;;
18443;SDS011;9350;53.176;8.194;2023-08-31T00:08:16;3.70;;;2.42;;
18443;SDS011;9350;53.176;8.194;2023-08-31T00:10:43;2.65;;;2.45;;
18443;SDS011;9350;53.176;8.194;2023-08-31T00:13:10;5.03;;;2.60;;
18443;SDS011;9350;53.176;8.194;2023-08-31T00:15:37;3.35;;;2.13;;
18443;SDS011;9350;53.176;8.194;2023-08-31T00:18:04;2.10;;;2.00;;
18443;SDS011;9350;53.176;8.194;2023-08-31T00:20:32;2.83;;;2.22;;
18443;SDS011;9350;53.176;8.194;2023-08-31T00:23:00;4.68;;;2.50;;
18443;SDS011;9350;53.176;8.194;2023-08-31T00:25:26;2.50;;;2.20;;
18443;SDS011;9350;53.176;8.194;2023-08-31T00:27:53;3.65;;;2.17;;
18443;SDS011;9350;53.176;8.194;2023-08-31T00:30:21;4.28;;;2.38;;
18443;SDS011;9350;53.176;8.194;2023-08-31T00:32:50;5.97;;;2.17;;
18443;SDS011;9350;53.176;8.194;2023-08-31T00:35:18;3.08;;;2.08;;
18443;SDS011;9350;53.176;8.194;2023-08-31T00:37:48;2.65;;;1.85;;
18443;SDS011;9350;53.176;8.194;2023-08-31T00:40:16;4.82;;;2.17;;
18443;SDS011;9350;53.176;8.194;2023-08-31T00:42:43;3.65;;;2.50;;
18443;SDS011;9350;53.176;8.194;2023-08-31T00:45:09;5.30;;;2.20;;
18443;SDS011;9350;53.176;8.194;2023-08-31T00:47:36;6.72;;;2.60;;
18443;SDS011;9350;53.176;8.194;2023-08-31T00:50:03;4.25;;;1.85;;
18443;SDS011;9350;53.176;8.194;2023-08-31T00:52:32;4.18;;;2.13;;
18443;SDS011;9350;53.176;8.194;2023-08-31T00:55:00;8.77;;;2.10;;
18443;SDS011;9350;53.176;8.194;2023-08-31T00:57:30;4.38;;;3.05;;
18443;SDS011;9350;53.176;8.194;2023-08-31T00:59:56;4.63;;;2.10;;
18443;SDS011;9350;53.176;8.194;2023-08-31T01:02:26;7.43;;;2.03;;
18443;SDS011;9350;53.176;8.194;2023-08-31T01:05:03;3.35;;;2.25;;
18443;SDS011;9350;53.176;8.194;2023-08-31T01:07:36;2.30;;;2.10;;
18443;SDS011;9350;53.176;8.194;2023-08-31T01:10:20;2.88;;;2.30;;
18443;SDS011;9350;53.176;8.194;2023-08-31T01:12:54;6.65;;;2.08;;
18443;SDS011;9350;53.176;8.194;2023-08-31T01:15:28;3.40;;;2.30;;
18443;SDS011;9350;53.176;8.194;2023-08-31T01:17:57;2.53;;;2.35;;
18443;SDS011;9350;53.176;8.194;2023-08-31T01:20:28;6.80;;;2.70;;
18443;SDS011;9350;53.176;8.194;2023-08-31T01:23:01;4.53;;;2.50;;
18443;SDS011;9350;53.176;8.194;2023-08-31T01:25:32;6.50;;;2.70;;
18443;SDS011;9350;53.176;8.194;2023-08-31T01:28:00;9.93;;;2.47;;
18443;SDS011;9350;53.176;8.194;2023-08-31T01:30:29;5.93;;;2.67;;
18443;SDS011;9350;53.176;8.194;2023-08-31T01:32:56;5.30;;;2.58;;
18443;SDS011;9350;53.176;8.194;2023-08-31T01:35:23;6.93;;;2.90;;
18443;SDS011;9350;53.176;8.194;2023-08-31T01:37:52;3.63;;;2.80;;
18443;SDS011;9350;53.176;8.194;2023-08-31T01:40:23;3.10;;;2.45;;
18443;SDS011;9350;53.176;8.194;2023-08-31T01:42:55;4.00;;;2.58;;
18443;SDS011;9350;53.176;8.194;2023-08-31T01:45:22;6.65;;;3.05;;
18443;SDS011;9350;53.176;8.194;2023-08-31T01:47:49;5.40;;;2.75;;
18443;SDS011;9350;53.176;8.194;2023-08-31T01:50:16;5.03;;;2.88;;
18443;SDS011;9350;53.176;8.194;2023-08-31T01:52:43;9.55;;;2.50;;
18443;SDS011;9350;53.176;8.194;2023-08-31T01:55:10;9.02;;;3.83;;
18443;SDS011;9350;53.176;8.194;2023-08-31T01:57:38;8.48;;;3.22;;
18443;SDS011;9350;53.176;8.194;2023-08-31T02:00:07;5.20;;;3.20;;
18443;SDS011;9350;53.176;8.194;2023-08-31T02:02:37;7.38;;;3.08;;
18443;SDS011;9350;53.176;8.194;2023-08-31T02:05:04;8.45;;;2.92;;
18443;SDS011;9350;53.176;8.194;2023-08-31T02:07:31;6.30;;;2.70;;
18443;SDS011;9350;53.176;8.194;2023-08-31T02:09:57;5.30;;;2.80;;
18443;SDS011;9350;53.176;8.194;2023-08-31T02:12:24;6.20;;;3.10;;
18443;SDS011;9350;53.176;8.194;2023-08-31T02:14:51;2.45;;;2.28;;
18443;SDS011;9350;53.176;8.194;2023-08-31T02:17:19;5.53;;;2.67;;
18443;SDS011;9350;53.176;8.194;2023-08-31T02:19:46;6.50;;;3.00;;
18443;SDS011;9350;53.176;8.194;2023-08-31T02:22:12;4.43;;;2.95;;
18443;SDS011;9350;53.176;8.194;2023-08-31T02:24:39;5.80;;;2.85;;
18443;SDS011;9350;53.176;8.194;2023-08-31T02:27:06;3.95;;;2.85;;
18443;SDS011;9350;53.176;8.194;2023-08-31T02:29:32;4.18;;;2.63;;
18443;SDS011;9350;53.176;8.194;2023-08-31T02:31:59;7.72;;;2.90;;
18443;SDS011;9350;53.176;8.194;2023-08-31T02:34:27;3.78;;;2.60;;
18443;SDS011;9350;53.176;8.194;2023-08-31T02:36:54;4.32;;;2.72;;
18443;SDS011;9350;53.176;8.194;2023-08-31T02:39:21;5.18;;;2.88;;
18443;SDS011;9350;53.176;8.194;2023-08-31T02:41:47;5.18;;;3.17;;
18443;SDS011;9350;53.176;8.194;2023-08-31T02:44:14;3.10;;;2.67;;
18443;SDS011;9350;53.176;8.194;2023-08-31T02:46:41;4.15;;;2.55;;
18443;SDS011;9350;53.176;8.194;2023-08-31T02:49:07;8.55;;;2.70;;
18443;SDS011;9350;53.176;8.194;2023-08-31T02:51:35;5.43;;;3.00;;
18443;SDS011;9350;53.176;8.194;2023-08-31T02:54:02;2.95;;;2.35;;
18443;SDS011;9350;53.176;8.194;2023-08-31T02:56:29;3.85;;;3.05;;
18443;SDS011;9350;53.176;8.194;2023-08-31T02:58:56;5.28;;;2.38;;
18443;SDS011;9350;53.176;8.194;2023-08-31T03:01:23;2.38;;;2.28;;
18443;SDS011;9350;53.176;8.194;2023-08-31T03:03:49;5.70;;;2.72;;
18443;SDS011;9350;53.176;8.194;2023-08-31T03:06:16;6.35;;;2.80;;
18443;SDS011;9350;53.176;8.194;2023-08-31T03:08:44;3.33;;;2.75;;
18443;SDS011;9350;53.176;8.194;2023-08-31T03:11:11;3.95;;;2.63;;
18443;SDS011;9350;53.176;8.194;2023-08-31T03:13:39;3.38;;;2.70;;
18443;SDS011;9350;53.176;8.194;2023-08-31T03:16:07;3.70;;;3.00;;
18443;SDS011;9350;53.176;8.194;2023-08-31T03:18:33;4.55;;;2.65;;
18443;SDS011;9350;53.176;8.194;2023-08-31T03:21:00;3.05;;;2.75;;
18443;SDS011;9350;53.176;8.194;2023-08-31T03:23:28;3.53;;;2.67;;
18443;SDS011;9350;53.176;8.194;2023-08-31T03:25:57;3.47;;;2.65;;
18443;SDS011;9350;53.176;8.194;2023-08-31T03:28:24;2.80;;;2.50;;
18443;SDS011;9350;53.176;8.194;2023-08-31T03:30:54;4.15;;;2.67;;
18443;SDS011;9350;53.176;8.194;2023-08-31T03:33:21;3.42;;;2.85;;
18443;SDS011;9350;53.176;8.194;2023-08-31T03:35:47;8.18;;;3.03;;
18443;SDS011;9350;53.176;8.194;2023-08-31T03:38:14;10.35;;;2.70;;
18443;SDS011;9350;53.176;8.194;2023-08-31T03:40:41;6.30;;;2.40;;
18443;SDS011;9350;53.176;8.194;2023-08-31T03:43:10;3.75;;;2.38;;
18443;SDS011;9350;53.176;8.194;2023-08-31T03:45:37;6.20;;;2.60;;
18443;SDS011;9350;53.176;8.194;2023-08-31T03:48:04;3.47;;;2.08;;
18443;SDS011;9350;53.176;8.194;2023-08-31T03:50:31;4.93;;;2.45;;
18443;SDS011;9350;53.176;8.194;2023-08-31T03:52:57;7.22;;;2.30;;
18443;SDS011;9350;53.176;8.194;2023-08-31T03:55:24;4.88;;;2.38;;
18443;SDS011;9350;53.176;8.194;2023-08-31T03:57:51;4.78;;;2.70;;
18443;SDS011;9350;53.176;8.194;2023-08-31T04:00:19;4.65;;;2.38;;
18443;SDS011;9350;53.176;8.194;2023-08-31T04:02:46;5.28;;;2.40;;
18443;SDS011;9350;53.176;8.194;2023-08-31T04:05:12;3.95;;;2.22;;
18443;SDS011;9350;53.176;8.194;2023-08-31T04:07:41;2.42;;;2.30;;
18443;SDS011;9350;53.176;8.194;2023-08-31T04:10:08;4.57;;;2.22;;
18443;SDS011;9350;53.176;8.194;2023-08-31T04:12:34;8.10;;;2.67;;
18443;SDS011;9350;53.176;8.194;2023-08-31T04:15:01;4.80;;;2.47;;
18443;SDS011;9350;53.176;8.194;2023-08-31T04:17:30;3.60;;;2.55;;
18443;SDS011;9350;53.176;8.194;2023-08-31T04:19:57;5.32;;;2.72;;
18443;SDS011;9350;53.176;8.194;2023-08-31T04:22:24;2.88;;;2.33;;
18443;SDS011;9350;53.176;8.194;2023-08-31T04:24:51;3.75;;;2.70;;
18443;SDS011;9350;53.176;8.194;2023-08-31T04:27:18;4.35;;;2.85;;
18443;SDS011;9350;53.176;8.194;2023-08-31T04:29:46;5.43;;;2.65;;
18443;SDS011;9350;53.176;8.194;2023-08-31T04:32:13;5.63;;;2.80;;
18443;SDS011;9350;53.176;8.194;2023-08-31T04:34:41;6.15;;;2.63;;
18443;SDS011;9350;53.176;8.194;2023-08-31T04:37:08;6.70;;;3.10;;
18443;SDS011;9350;53.176;8.194;2023-08-31T04:39:34;5.65;;;2.83;;
18443;SDS011;9350;53.176;8.194;2023-08-31T04:42:01;6.43;;;3.28;;
18443;SDS011;9350;53.176;8.194;2023-08-31T04:44:28;4.95;;;3.15;;
18443;SDS011;9350;53.176;8.194;2023-08-31T04:46:55;6.93;;;3.13;;
18443;SDS011;9350;53.176;8.194;2023-08-31T04:49:21;3.47;;;3.03;;
18443;SDS011;9350;53.176;8.194;2023-08-31T04:51:50;5.80;;;3.15;;
18443;SDS011;9350;53.176;8.194;2023-08-31T04:54:16;7.82;;;3.63;;
18443;SDS011;9350;53.176;8.194;2023-08-31T04:56:43;5.43;;;3.38;;
18443;SDS011;9350;53.176;8.194;2023-08-31T04:59:10;4.88;;;3.95;;
18443;SDS011;9350;53.176;8.194;2023-08-31T05:01:36;5.53;;;3.80;;
18443;SDS011;9350;53.176;8.194;2023-08-31T05:04:03;9.20;;;4.32;;
18443;SDS011;9350;53.176;8.194;2023-08-31T05:06:30;6.97;;;4.38;;
18443;SDS011;9350;53.176;8.194;2023-08-31T05:08:59;9.55;;;4.35;;
18443;SDS011;9350;53.176;8.194;2023-08-31T05:11:26;6.45;;;4.55;;
18443;SDS011;9350;53.176;8.194;2023-08-31T05:13:52;10.75;;;4.80;;
18443;SDS011;9350;53.176;8.194;2023-08-31T05:16:19;6.82;;;4.32;;
18443;SDS011;9350;53.176;8.194;2023-08-31T05:18:46;6.60;;;4.60;;
18443;SDS011;9350;53.176;8.194;2023-08-31T05:21:14;8.13;;;5.10;;
18443;SDS011;9350;53.176;8.194;2023-08-31T05:23:41;9.10;;;4.75;;
18443;SDS011;9350;53.176;8.194;2023-08-31T05:26:09;7.80;;;4.47;;
18443;SDS011;9350;53.176;8.194;2023-08-31T05:28:36;6.25;;;4.47;;
18443;SDS011;9350;53.176;8.194;2023-08-31T05:31:03;6.88;;;5.22;;
18443;SDS011;9350;53.176;8.194;2023-08-31T05:33:30;7.05;;;5.25;;
18443;SDS011;9350;53.176;8.194;2023-08-31T05:36:00;9.05;;;5.28;;
18443;SDS011;9350;53.176;8.194;2023-08-31T05:38:28;7.13;;;5.43;;
18443;SDS011;9350;53.176;8.194;2023-08-31T05:41:02;7.53;;;5.32;;
18443;SDS011;9350;53.176;8.194;2023-08-31T05:43:32;7.22;;;4.72;;
18443;SDS011;9350;53.176;8.194;2023-08-31T05:45:59;7.70;;;4.97;;
18443;SDS011;9350;53.176;8.194;2023-08-31T05:48:25;7.60;;;5.05;;
18443;SDS011;9350;53.176;8.194;2023-08-31T05:50:53;9.45;;;5.60;;
18443;SDS011;9350;53.176;8.194;2023-08-31T05:53:20;7.82;;;5.18;;
18443;SDS011;9350;53.176;8.194;2023-08-31T05:55:46;7.45;;;5.15;;
18443;SDS011;9350;53.176;8.194;2023-08-31T05:58:13;6.07;;;4.70;;
18443;SDS011;9350;53.176;8.194;2023-08-31T06:03:08;8.45;;;5.72;;
18443;SDS011;9350;53.176;8.194;2023-08-31T06:05:35;8.60;;;5.22;;
18443;SDS011;9350;53.176;8.194;2023-08-31T06:08:03;12.48;;;5.40;;
18443;SDS011;9350;53.176;8.194;2023-08-31T06:10:30;7.38;;;5.30;;
18443;SDS011;9350;53.176;8.194;2023-08-31T06:12:57;7.53;;;5.28;;
18443;SDS011;9350;53.176;8.194;2023-08-31T06:15:24;10.93;;;5.35;;
18443;SDS011;9350;53.176;8.194;2023-08-31T06:17:50;7.50;;;5.90;;
18443;SDS011;9350;53.176;8.194;2023-08-31T06:20:18;9.45;;;5.63;;
18443;SDS011;9350;53.176;8.194;2023-08-31T06:22:45;8.20;;;5.82;;
18443;SDS011;9350;53.176;8.194;2023-08-31T06:25:12;8.57;;;5.50;;
18443;SDS011;9350;53.176;8.194;2023-08-31T06:27:41;16.33;;;5.57;;
18443;SDS011;9350;53.176;8.194;2023-08-31T06:30:08;10.20;;;6.07;;
18443;SDS011;9350;53.176;8.194;2023-08-31T06:32:37;10.07;;;5.30;;
18443;SDS011;9350;53.176;8.194;2023-08-31T06:35:04;6.13;;;5.03;;
18443;SDS011;9350;53.176;8.194;2023-08-31T06:37:32;6.53;;;5.15;;
18443;SDS011;9350;53.176;8.194;2023-08-31T06:39:59;11.25;;;5.40;;
18443;SDS011;9350;53.176;8.194;2023-08-31T06:42:26;9.68;;;6.00;;
18443;SDS011;9350;53.176;8.194;2023-08-31T06:44:52;6.57;;;5.70;;
18443;SDS011;9350;53.176;8.194;2023-08-31T06:47:20;9.80;;;5.90;;
18443;SDS011;9350;53.176;8.194;2023-08-31T06:49:47;6.60;;;5.35;;
18443;SDS011;9350;53.176;8.194;2023-08-31T06:52:14;8.98;;;5.60;;
18443;SDS011;9350;53.176;8.194;2023-08-31T06:54:42;7.57;;;5.35;;
18443;SDS011;9350;53.176;8.194;2023-08-31T06:57:09;6.85;;;5.00;;
18443;SDS011;9350;53.176;8.194;2023-08-31T06:59:35;9.57;;;5.65;;
18443;SDS011;9350;53.176;8.194;2023-08-31T07:02:02;9.30;;;5.68;;
18443;SDS011;9350;53.176;8.194;2023-08-31T07:04:29;6.68;;;5.95;;
18443;SDS011;9350;53.176;8.194;2023-08-31T07:06:56;10.07;;;5.35;;
18443;SDS011;9350;53.176;8.194;2023-08-31T07:09:22;6.43;;;5.18;;
18443;SDS011;9350;53.176;8.194;2023-08-31T07:11:51;10.05;;;5.10;;
18443;SDS011;9350;53.176;8.194;2023-08-31T07:14:17;8.77;;;5.30;;
18443;SDS011;9350;53.176;8.194;2023-08-31T07:16:44;7.55;;;5.65;;
18443;SDS011;9350;53.176;8.194;2023-08-31T07:19:11;6.95;;;5.30;;
18443;SDS011;9350;53.176;8.194;2023-08-31T07:21:37;8.35;;;5.43;;
18443;SDS011;9350;53.176;8.194;2023-08-31T07:24:04;7.05;;;4.78;;
18443;SDS011;9350;53.176;8.194;2023-08-31T07:26:31;8.02;;;5.00;;
18443;SDS011;9350;53.176;8.194;2023-08-31T07:29:01;6.13;;;4.72;;
18443;SDS011;9350;53.176;8.194;2023-08-31T07:31:29;5.20;;;4.65;;
18443;SDS011;9350;53.176;8.194;2023-08-31T07:33:56;5.85;;;4.30;;
18443;SDS011;9350;53.176;8.194;2023-08-31T07:36:23;5.95;;;4.30;;
18443;SDS011;9350;53.176;8.194;2023-08-31T07:38:50;6.70;;;4.65;;
18443;SDS011;9350;53.176;8.194;2023-08-31T07:41:17;7.60;;;4.55;;
18443;SDS011;9350;53.176;8.194;2023-08-31T07:43:44;7.72;;;4.50;;
18443;SDS011;9350;53.176;8.194;2023-08-31T07:46:12;6.43;;;4.15;;
18443;SDS011;9350;53.176;8.194;2023-08-31T07:48:38;8.25;;;4.70;;
18443;SDS011;9350;53.176;8.194;2023-08-31T07:51:05;5.57;;;4.65;;
18443;SDS011;9350;53.176;8.194;2023-08-31T07:53:32;8.20;;;4.13;;
18443;SDS011;9350;53.176;8.194;2023-08-31T07:55:58;6.70;;;4.40;;
18443;SDS011;9350;53.176;8.194;2023-08-31T07:58:25;7.65;;;4.55;;
18443;SDS011;9350;53.176;8.194;2023-08-31T08:00:52;6.53;;;4.10;;
18443;SDS011;9350;53.176;8.194;2023-08-31T08:03:21;7.05;;;4.32;;
18443;SDS011;9350;53.176;8.194;2023-08-31T08:05:48;7.13;;;4.00;;
18443;SDS011;9350;53.176;8.194;2023-08-31T08:08:15;8.73;;;4.55;;
18443;SDS011;9350;53.176;8.194;2023-08-31T08:10:41;4.88;;;4.00;;
18443;SDS011;9350;53.176;8.194;2023-08-31T08:13:08;6.95;;;4.20;;
18443;SDS011;9350;53.176;8.194;2023-08-31T08:15:35;6.38;;;4.47;;
18443;SDS011;9350;53.176;8.194;2023-08-31T08:18:02;7.35;;;4.40;;
18443;SDS011;9350;53.176;8.194;2023-08-31T08:20:31;7.63;;;5.22;;
18443;SDS011;9350;53.176;8.194;2023-08-31T08:22:57;6.55;;;4.07;;
18443;SDS011;9350;53.176;8.194;2023-08-31T08:25:24;5.40;;;4.28;;
18443;SDS011;9350;53.176;8.194;2023-08-31T08:27:51;10.30;;;4.55;;
18443;SDS011;9350;53.176;8.194;2023-08-31T08:30:18;7.13;;;3.80;;
18443;SDS011;9350;53.176;8.194;2023-08-31T08:32:45;6.35;;;4.30;;
18443;SDS011;9350;53.176;8.194;2023-08-31T08:35:11;5.38;;;3.45;;
18443;SDS011;9350;53.176;8.194;2023-08-31T08:37:40;9.60;;;3.90;;
18443;SDS011;9350;53.176;8.194;2023-08-31T08:40:07;6.32;;;4.82;;
18443;SDS011;9350;53.176;8.194;2023-08-31T08:42:37;10.70;;;5.53;;
18443;SDS011;9350;53.176;8.194;2023-08-31T08:45:07;6.97;;;4.95;;
18443;SDS011;9350;53.176;8.194;2023-08-31T08:47:37;5.63;;;4.30;;
18443;SDS011;9350;53.176;8.194;2023-08-31T08:50:06;10.07;;;4.35;;
18443;SDS011;9350;53.176;8.194;2023-08-31T08:52:33;6.90;;;5.30;;
18443;SDS011;9350;53.176;8.194;2023-08-31T08:55:02;7.05;;;5.47;;
18443;SDS011;9350;53.176;8.194;2023-08-31T08:57:30;8.13;;;4.80;;
18443;SDS011;9350;53.176;8.194;2023-08-31T08:59:57;6.65;;;4.95;;
18443;SDS011;9350;53.176;8.194;2023-08-31T09:02:24;8.73;;;5.63;;
18443;SDS011;9350;53.176;8.194;2023-08-31T09:04:50;7.07;;;5.50;;
18443;SDS011;9350;53.176;8.194;2023-08-31T09:07:19;6.13;;;5.07;;
18443;SDS011;9350;53.176;8.194;2023-08-31T09:09:47;6.65;;;4.65;;
18443;SDS011;9350;53.176;8.194;2023-08-31T09:12:17;5.43;;;4.45;;
18443;SDS011;9350;53.176;8.194;2023-08-31T09:14:56;5.35;;;4.50;;
18443;SDS011;9350;53.176;8.194;2023-08-31T09:17:23;4.22;;;3.88;;
18443;SDS011;9350;53.176;8.194;2023-08-31T09:19:58;4.70;;;3.47;;
18443;SDS011;9350;53.176;8.194;2023-08-31T09:22:25;8.77;;;3.50;;
18443;SDS011;9350;53.176;8.194;2023-08-31T09:24:52;3.95;;;2.92;;
18443;SDS011;9350;53.176;8.194;2023-08-31T09:27:21;4.95;;;2.30;;
18443;SDS011;9350;53.176;8.194;2023-08-31T09:29:49;6.05;;;2.38;;
18443;SDS011;9350;53.176;8.194;2023-08-31T09:32:20;3.28;;;2.40;;
18443;SDS011;9350;53.176;8.194;2023-08-31T09:34:47;7.80;;;2.20;;
18443;SDS011;9350;53.176;8.194;2023-08-31T09:37:15;3.05;;;1.85;;
18443;SDS011;9350;53.176;8.194;2023-08-31T09:39:42;2.60;;;1.60;;
18443;SDS011;9350;53.176;8.194;2023-08-31T09:42:09;2.85;;;1.40;;
18443;SDS011;9350;53.176;8.194;2023-08-31T09:44:39;2.03;;;1.60;;
18443;SDS011;9350;53.176;8.194;2023-08-31T09:47:07;2.58;;;1.45;;
18443;SDS011;9350;53.176;8.194;2023-08-31T09:49:34;6.28;;;1.58;;
18443;SDS011;9350;53.176;8.194;2023-08-31T09:52:03;1.85;;;1.10;;
18443;SDS011;9350;53.176;8.194;2023-08-31T09:54:31;4.63;;;1.40;;
18443;SDS011;9350;53.176;8.194;2023-08-31T09:57:00;3.30;;;1.05;;
18443;SDS011;9350;53.176;8.194;2023-08-31T09:59:28;3.13;;;1.60;;
18443;SDS011;9350;53.176;8.194;2023-08-31T10:01:57;1.75;;;1.30;;
18443;SDS011;9350;53.176;8.194;2023-08-31T10:04:26;2.70;;;1.63;;
18443;SDS011;9350;53.176;8.194;2023-08-31T10:06:55;3.28;;;1.10;;
18443;SDS011;9350;53.176;8.194;2023-08-31T10:09:22;3.85;;;1.27;;
18443;SDS011;9350;53.176;8.194;2023-08-31T10:11:50;1.83;;;1.25;;
18443;SDS011;9350;53.176;8.194;2023-08-31T10:14:17;4.78;;;1.65;;
18443;SDS011;9350;53.176;8.194;2023-08-31T10:16:46;9.48;;;2.10;;
18443;SDS011;9350;53.176;8.194;2023-08-31T10:19:15;6.90;;;2.28;;
18443;SDS011;9350;53.176;8.194;2023-08-31T10:21:42;3.80;;;1.98;;
18443;SDS011;9350;53.176;8.194;2023-08-31T10:24:09;8.95;;;2.58;;
18443;SDS011;9350;53.176;8.194;2023-08-31T10:26:36;3.90;;;1.80;;
18443;SDS011;9350;53.176;8.194;2023-08-31T10:29:02;6.30;;;1.95;;
18443;SDS011;9350;53.176;8.194;2023-08-31T10:31:30;4.68;;;1.50;;
18443;SDS011;9350;53.176;8.194;2023-08-31T10:33:58;4.95;;;1.60;;
18443;SDS011;9350;53.176;8.194;2023-08-31T10:36:36;6.20;;;2.10;;
18443;SDS011;9350;53.176;8.194;2023-08-31T10:39:05;5.68;;;1.90;;
18443;SDS011;9350;53.176;8.194;2023-08-31T10:41:36;3.63;;;1.70;;
18443;SDS011;9350;53.176;8.194;2023-08-31T10:44:17;3.03;;;2.03;;
18443;SDS011;9350;53.176;8.194;2023-08-31T10:46:45;3.10;;;1.63;;
18443;SDS011;9350;53.176;8.194;2023-08-31T10:49:13;3.97;;;1.85;;
18443;SDS011;9350;53.176;8.194;2023-08-31T10:51:42;6.45;;;2.05;;
18443;SDS011;9350;53.176;8.194;2023-08-31T10:54:11;4.03;;;1.42;;
18443;SDS011;9350;53.176;8.194;2023-08-31T10:56:55;3.28;;;1.20;;
18443;SDS011;9350;53.176;8.194;2023-08-31T10:59:41;2.35;;;1.02;;
18443;SDS011;9350;53.176;8.194;2023-08-31T11:02:26;1.38;;;1.13;;
18443;SDS011;9350;53.176;8.194;2023-08-31T11:04:59;7.40;;;1.08;;
18443;SDS011;9350;53.176;8.194;2023-08-31T11:07:30;3.80;;;1.02;;
18443;SDS011;9350;53.176;8.194;2023-08-31T11:10:10;2.35;;;1.00;;
18443;SDS011;9350;53.176;8.194;2023-08-31T11:12:38;4.32;;;1.08;;
18443;SDS011;9350;53.176;8.194;2023-08-31T11:15:06;3.50;;;1.20;;
18443;SDS011;9350;53.176;8.194;2023-08-31T11:17:33;2.75;;;1.48;;
18443;SDS011;9350;53.176;8.194;2023-08-31T11:20:00;4.07;;;1.15;;
18443;SDS011;9350;53.176;8.194;2023-08-31T11:22:31;2.65;;;1.05;;
18443;SDS011;9350;53.176;8.194;2023-08-31T11:24:59;1.65;;;1.20;;
18443;SDS011;9350;53.176;8.194;2023-08-31T11:27:25;1.60;;;1.13;;
18443;SDS011;9350;53.176;8.194;2023-08-31T11:29:52;2.75;;;1.15;;
18443;SDS011;9350;53.176;8.194;2023-08-31T11:32:19;3.97;;;1.23;;
18443;SDS011;9350;53.176;8.194;2023-08-31T11:34:49;2.75;;;0.95;;
18443;SDS011;9350;53.176;8.194;2023-08-31T11:37:16;3.40;;;1.38;;
18443;SDS011;9350;53.176;8.194;2023-08-31T11:39:49;4.47;;;1.38;;
18443;SDS011;9350;53.176;8.194;2023-08-31T11:42:17;6.65;;;1.20;;
18443;SDS011;9350;53.176;8.194;2023-08-31T11:44:45;3.08;;;1.10;;
18443;SDS011;9350;53.176;8.194;2023-08-31T11:47:12;1.15;;;1.00;;
18443;SDS011;9350;53.176;8.194;2023-08-31T11:49:40;4.80;;;1.30;;
18443;SDS011;9350;53.176;8.194;2023-08-31T11:52:09;1.60;;;1.30;;
18443;SDS011;9350;53.176;8.194;2023-08-31T11:54:36;4.10;;;1.33;;
18443;SDS011;9350;53.176;8.194;2023-08-31T11:57:07;2.00;;;1.00;;
18443;SDS011;9350;53.176;8.194;2023-08-31T11:59:34;5.85;;;1.45;;
18443;SDS011;9350;53.176;8.194;2023-08-31T12:02:05;2.45;;;1.00;;
18443;SDS011;9350;53.176;8.194;2023-08-31T12:04:32;2.55;;;1.02;;
18443;SDS011;9350;53.176;8.194;2023-08-31T12:07:00;2.22;;;0.90;;
18443;SDS011;9350;53.176;8.194;2023-08-31T12:09:30;2.75;;;0.80;;
18443;SDS011;9350;53.176;8.194;2023-08-31T12:11:57;0.88;;;0.88;;
18443;SDS011;9350;53.176;8.194;2023-08-31T12:14:27;1.23;;;0.90;;
18443;SDS011;9350;53.176;8.194;2023-08-31T12:16:59;1.48;;;0.90;;
18443;SDS011;9350;53.176;8.194;2023-08-31T12:19:28;1.95;;;1.02;;
18443;SDS011;9350;53.176;8.194;2023-08-31T12:21:55;3.95;;;1.05;;
18443;SDS011;9350;53.176;8.194;2023-08-31T12:24:22;3.38;;;1.00;;
18443;SDS011;9350;53.176;8.194;2023-08-31T12:26:50;2.08;;;1.10;;
18443;SDS011;9350;53.176;8.194;2023-08-31T12:29:18;1.65;;;1.05;;
18443;SDS011;9350;53.176;8.194;2023-08-31T12:31:46;1.98;;;0.90;;
18443;SDS011;9350;53.176;8.194;2023-08-31T12:34:14;1.50;;;1.20;;
18443;SDS011;9350;53.176;8.194;2023-08-31T12:36:41;2.00;;;1.10;;
18443;SDS011;9350;53.176;8.194;2023-08-31T12:39:08;5.05;;;1.20;;
18443;SDS011;9350;53.176;8.194;2023-08-31T12:41:35;3.00;;;1.20;;
18443;SDS011;9350;53.176;8.194;2023-08-31T12:44:03;2.30;;;1.17;;
18443;SDS011;9350;53.176;8.194;2023-08-31T12:46:30;1.38;;;1.05;;
18443;SDS011;9350;53.176;8.194;2023-08-31T12:49:00;1.33;;;1.10;;
18443;SDS011;9350;53.176;8.194;2023-08-31T12:51:28;1.00;;;0.93;;
18443;SDS011;9350;53.176;8.194;2023-08-31T12:53:55;3.13;;;1.10;;
18443;SDS011;9350;53.176;8.194;2023-08-31T12:56:22;1.55;;;1.08;;
18443;SDS011;9350;53.176;8.194;2023-08-31T12:58:49;1.55;;;1.20;;
18443;SDS011;9350;53.176;8.194;2023-08-31T13:01:16;1.60;;;1.20;;
18443;SDS011;9350;53.176;8.194;2023-08-31T13:03:43;4.03;;;1.75;;
18443;SDS011;9350;53.176;8.194;2023-08-31T13:06:11;2.10;;;1.20;;
18443;SDS011;9350;53.176;8.194;2023-08-31T13:08:38;1.75;;;1.10;;
18443;SDS011;9350;53.176;8.194;2023-08-31T13:11:05;1.85;;;0.98;;
18443;SDS011;9350;53.176;8.194;2023-08-31T13:13:32;0.80;;;0.80;;
18443;SDS011;9350;53.176;8.194;2023-08-31T13:15:58;3.35;;;1.10;;
18443;SDS011;9350;53.176;8.194;2023-08-31T13:18:25;2.38;;;1.30;;
18443;SDS011;9350;53.176;8.194;2023-08-31T13:20:53;1.00;;;1.00;;
18443;SDS011;9350;53.176;8.194;2023-08-31T13:23:22;2.92;;;1.20;;
18443;SDS011;9350;53.176;8.194;2023-08-31T13:25:49;4.93;;;1.33;;
18443;SDS011;9350;53.176;8.194;2023-08-31T13:28:16;3.78;;;1.27;;
18443;SDS011;9350;53.176;8.194;2023-08-31T13:30:43;1.30;;;0.90;;
18443;SDS011;9350;53.176;8.194;2023-08-31T13:33:10;0.90;;;0.90;;
18443;SDS011;9350;53.176;8.194;2023-08-31T13:35:36;0.98;;;0.98;;
18443;SDS011;9350;53.176;8.194;2023-08-31T13:38:03;1.98;;;1.00;;
18443;SDS011;9350;53.176;8.194;2023-08-31T13:40:33;1.23;;;1.13;;
18443;SDS011;9350;53.176;8.194;2023-08-31T13:43:00;1.90;;;0.90;;
18443;SDS011;9350;53.176;8.194;2023-08-31T13:45:28;1.20;;;1.10;;
18443;SDS011;9350;53.176;8.194;2023-08-31T13:47:55;0.90;;;0.90;;
18443;SDS011;9350;53.176;8.194;2023-08-31T13:50:22;1.42;;;0.98;;
18443;SDS011;9350;53.176;8.194;2023-08-31T13:52:49;2.50;;;0.90;;
18443;SDS011;9350;53.176;8.194;2023-08-31T13:55:16;3.03;;;1.00;;
18443;SDS011;9350;53.176;8.194;2023-08-31T13:57:44;1.55;;;0.93;;
18443;SDS011;9350;53.176;8.194;2023-08-31T14:00:12;1.98;;;0.80;;
18443;SDS011;9350;53.176;8.194;2023-08-31T14:02:39;1.80;;;0.93;;
18443;SDS011;9350;53.176;8.194;2023-08-31T14:05:06;4.53;;;1.02;;
18443;SDS011;9350;53.176;8.194;2023-08-31T14:07:35;4.07;;;1.35;;
18443;SDS011;9350;53.176;8.194;2023-08-31T14:10:01;3.95;;;1.55;;
18443;SDS011;9350;53.176;8.194;2023-08-31T14:12:30;1.98;;;1.00;;
18443;SDS011;9350;53.176;8.194;2023-08-31T14:14:58;1.15;;;1.10;;
18443;SDS011;9350;53.176;8.194;2023-08-31T14:17:25;2.45;;;1.10;;
18443;SDS011;9350;53.176;8.194;2023-08-31T14:19:52;9.35;;;1.50;;
18443;SDS011;9350;53.176;8.194;2023-08-31T14:22:19;1.30;;;1.20;;
18443;SDS011;9350;53.176;8.194;2023-08-31T14:24:46;1.00;;;0.90;;
18443;SDS011;9350;53.176;8.194;2023-08-31T14:27:12;3.13;;;1.40;;
18443;SDS011;9350;53.176;8.194;2023-08-31T14:29:39;2.97;;;1.00;;
18443;SDS011;9350;53.176;8.194;2023-08-31T14:32:07;1.77;;;1.42;;
18443;SDS011;9350;53.176;8.194;2023-08-31T14:34:34;1.48;;;1.10;;
18443;SDS011;9350;53.176;8.194;2023-08-31T14:37:00;1.20;;;1.10;;
18443;SDS011;9350;53.176;8.194;2023-08-31T14:39:28;1.17;;;1.10;;
18443;SDS011;9350;53.176;8.194;2023-08-31T14:41:55;1.85;;;1.00;;
18443;SDS011;9350;53.176;8.194;2023-08-31T14:44:22;2.42;;;1.02;;
18443;SDS011;9350;53.176;8.194;2023-08-31T14:46:49;1.80;;;1.17;;
18443;SDS011;9350;53.176;8.194;2023-08-31T14:49:17;1.33;;;1.02;;
18443;SDS011;9350;53.176;8.194;2023-08-31T14:51:44;1.15;;;1.10;;
18443;SDS011;9350;53.176;8.194;2023-08-31T14:54:11;1.27;;;1.13;;
18443;SDS011;9350;53.176;8.194;2023-08-31T14:56:37;1.55;;;1.35;;
18443;SDS011;9350;53.176;8.194;2023-08-31T14:59:04;1.73;;;0.88;;
18443;SDS011;9350;53.176;8.194;2023-08-31T15:01:31;1.27;;;1.17;;
18443;SDS011;9350;53.176;8.194;2023-08-31T15:03:57;2.25;;;1.25;;
18443;SDS011;9350;53.176;8.194;2023-08-31T15:06:25;3.60;;;1.38;;